createdAt,value
2019-03-29T00:04:24.891Z,96.35
2019-03-29T00:09:31.487Z,96.26
2019-03-29T00:14:37.580Z,96.11
2019-03-29T00:19:43.274Z,96.11
2019-03-29T00:24:48.873Z,95.98
2019-03-29T00:29:55.284Z,96.27
2019-03-29T00:35:01.701Z,96.32
2019-03-29T00:40:07.832Z,96.71
2019-03-29T00:45:14.952Z,96.69
2019-03-29T00:50:20.771Z,96.87
2019-03-29T00:55:26.501Z,96.97
2019-03-29T01:00:33.660Z,96.99
2019-03-29T01:05:39.492Z,97.11
2019-03-29T01:10:45.543Z,97.24
2019-03-29T01:15:51.654Z,97.23
2019-03-29T01:20:57.356Z,97.46
2019-03-29T01:26:03.107Z,97.53
2019-03-29T01:31:09.230Z,97.55
2019-03-29T01:36:14.897Z,97.61
2019-03-29T01:41:20.559Z,97.52
2019-03-29T01:46:26.072Z,97.73
2019-03-29T01:51:31.909Z,97.79
2019-03-29T01:56:37.677Z,97.87
2019-03-29T02:01:43.790Z,97.74
2019-03-29T02:06:49.569Z,97.54
2019-03-29T02:11:55.312Z,97.40
2019-03-29T02:17:01.841Z,97.25
2019-03-29T02:22:09.079Z,97.17
2019-03-29T02:27:15.039Z,97.39
2019-03-29T02:32:20.569Z,97.34
2019-03-29T02:37:26.962Z,97.36
2019-03-29T02:42:33.496Z,97.25
2019-03-29T02:47:39.170Z,97.60
2019-03-29T02:52:45.167Z,97.68
2019-03-29T02:57:52.259Z,97.59
2019-03-29T03:02:58.601Z,97.53
2019-03-29T03:08:04.392Z,97.61
2019-03-29T03:13:10.546Z,97.47
2019-03-29T03:18:16.240Z,97.88
2019-03-29T03:23:24.026Z,97.75
2019-03-29T03:28:30.029Z,97.72
2019-03-29T03:33:36.497Z,97.83
2019-03-29T03:38:42.244Z,97.69
2019-03-29T03:43:48.398Z,97.55
2019-03-29T03:48:54.160Z,97.68
2019-03-29T03:54:00.471Z,97.65
2019-03-29T03:59:06.643Z,97.54
2019-03-29T04:04:13.579Z,97.69
2019-03-29T04:09:19.589Z,97.41
2019-03-29T04:14:25.586Z,97.59
2019-03-29T04:19:31.544Z,97.44
2019-03-29T04:24:37.344Z,97.58
2019-03-29T04:29:43.797Z,97.94
2019-03-29T04:34:49.837Z,98.10
2019-03-29T04:40:06.853Z,98.11
2019-03-29T04:45:03.409Z,98.15
2019-03-29T04:50:09.821Z,98.07
2019-03-29T04:55:15.524Z,97.88
2019-03-29T05:00:22.122Z,98.15
2019-03-29T05:05:27.975Z,97.94
2019-03-29T05:10:34.147Z,97.79
2019-03-29T05:15:39.864Z,97.63
2019-03-29T05:20:45.576Z,97.39
2019-03-29T05:25:51.351Z,97.39
2019-03-29T05:30:57.126Z,97.29
2019-03-29T05:36:03.240Z,97.67
2019-03-29T05:41:09.596Z,98.16
2019-03-29T05:46:15.717Z,98.09
2019-03-29T05:51:21.425Z,98.03
2019-03-29T05:56:27.229Z,98.17
2019-03-29T06:01:32.926Z,98.08
2019-03-29T06:06:39.056Z,97.67
2019-03-29T06:11:44.842Z,97.75
2019-03-29T06:16:50.559Z,97.67
2019-03-29T06:21:56.343Z,97.25
2019-03-29T06:27:02.440Z,97.11
2019-03-29T06:32:08.322Z,97.00
2019-03-29T06:37:17.432Z,96.58
2019-03-29T06:42:23.172Z,96.54
2019-03-29T06:47:29.687Z,95.95
2019-03-29T06:52:35.576Z,95.82
2019-03-29T06:57:41.280Z,95.88
2019-03-29T07:02:46.991Z,95.47
2019-03-29T07:07:52.777Z,95.28
2019-03-29T07:12:58.640Z,94.52
2019-03-29T07:18:04.341Z,94.59
2019-03-29T07:23:10.373Z,94.58
2019-03-29T07:28:16.173Z,93.19
2019-03-29T07:33:21.880Z,92.50
2019-03-29T07:38:28.637Z,92.54
2019-03-29T07:43:34.997Z,91.15
2019-03-29T07:48:41.775Z,90.99
2019-03-29T07:53:48.472Z,90.52
2019-03-29T07:58:54.762Z,90.33
2019-03-29T08:04:00.650Z,89.22
2019-03-29T08:09:21.318Z,89.31
2019-03-29T08:14:15.413Z,89.64
2019-03-29T08:19:21.319Z,89.50
2019-03-29T08:24:27.693Z,89.16
2019-03-29T08:29:33.576Z,88.30
2019-03-29T08:34:39.722Z,88.00
2019-03-29T08:39:45.513Z,87.29
2019-03-29T08:44:51.301Z,85.98
2019-03-29T08:49:57.079Z,85.82
2019-03-29T08:55:02.877Z,86.07
2019-03-29T09:00:09.931Z,83.77
2019-03-29T09:05:15.896Z,83.19
2019-03-29T09:10:26.129Z,83.34
2019-03-29T09:15:32.295Z,82.05
2019-03-29T09:20:40.416Z,80.78
2019-03-29T09:25:46.680Z,80.73
2019-03-29T09:30:56.400Z,77.87
2019-03-29T09:36:00.636Z,77.70
2019-03-29T09:41:06.751Z,75.92
2019-03-29T09:46:12.699Z,75.96
2019-03-29T09:51:18.500Z,74.66
2019-03-29T09:56:38.097Z,75.04
2019-03-29T10:01:32.373Z,73.92
2019-03-29T10:06:39.604Z,70.09
2019-03-29T10:11:45.522Z,70.11
2019-03-29T10:16:52.796Z,71.48
2019-03-29T10:21:59.538Z,69.24
2019-03-29T10:27:05.322Z,68.60
2019-03-29T10:32:11.855Z,70.26
2019-03-29T10:37:18.050Z,69.30
2019-03-29T10:42:23.848Z,70.20
2019-03-29T10:47:43.288Z,70.03
2019-03-29T10:52:37.045Z,70.97
2019-03-29T10:57:42.822Z,69.20
2019-03-29T11:02:49.721Z,68.21
2019-03-29T11:07:55.523Z,68.04
2019-03-29T11:13:12.569Z,70.07
2019-03-29T11:18:09.421Z,68.86
2019-03-29T11:23:15.319Z,66.56
2019-03-29T11:28:21.101Z,66.30
2019-03-29T11:33:27.338Z,65.18
2019-03-29T11:38:33.115Z,65.79
2019-03-29T11:43:39.029Z,66.49
2019-03-29T11:48:44.811Z,66.25
2019-03-29T11:53:52.318Z,63.37
2019-03-29T11:58:58.110Z,65.33
2019-03-29T12:04:05.282Z,65.55
2019-03-29T12:09:11.062Z,64.84
2019-03-29T12:14:17.154Z,64.20
2019-03-29T12:19:23.035Z,63.65
2019-03-29T12:24:29.166Z,63.31
2019-03-29T12:29:35.084Z,63.46
2019-03-29T12:34:40.961Z,64.52
2019-03-29T12:39:46.839Z,63.96
2019-03-29T12:44:52.638Z,63.33
2019-03-29T12:49:58.428Z,62.44
2019-03-29T12:55:04.413Z,61.01
2019-03-29T13:00:10.710Z,62.79
2019-03-29T13:05:17.554Z,60.43
2019-03-29T13:10:23.433Z,58.80
2019-03-29T13:15:30.261Z,58.81
2019-03-29T13:20:36.024Z,58.18
2019-03-29T13:25:41.795Z,57.58
2019-03-29T13:30:47.649Z,56.95
2019-03-29T13:35:53.674Z,57.64
2019-03-29T13:40:59.476Z,57.88
2019-03-29T13:46:05.378Z,55.63
2019-03-29T13:51:11.455Z,54.35
2019-03-29T13:56:17.232Z,55.71
2019-03-29T14:01:23.312Z,53.54
2019-03-29T14:06:29.266Z,53.50
2019-03-29T14:11:35.056Z,51.33
2019-03-29T14:16:40.862Z,51.41
2019-03-29T14:21:46.983Z,50.97
2019-03-29T14:26:52.842Z,51.51
2019-03-29T14:31:58.612Z,49.96
2019-03-29T14:37:04.408Z,50.37
2019-03-29T14:42:12.780Z,48.75
2019-03-29T14:47:18.861Z,49.47
2019-03-29T14:52:24.634Z,47.55
2019-03-29T14:57:30.417Z,47.39
2019-03-29T15:02:36.184Z,47.17
2019-03-29T15:07:43.197Z,47.80
2019-03-29T15:12:50.058Z,47.75
2019-03-29T15:17:56.232Z,47.15
2019-03-29T15:23:02.036Z,46.72
2019-03-29T15:28:07.933Z,48.39
2019-03-29T15:33:13.814Z,46.52
2019-03-29T15:38:19.664Z,46.66
2019-03-29T15:43:25.444Z,45.71
2019-03-29T15:48:31.301Z,45.71
2019-03-29T15:53:37.395Z,46.05
2019-03-29T15:58:43.267Z,46.07
2019-03-29T16:03:49.142Z,46.47
2019-03-29T16:08:55.021Z,45.25
2019-03-29T16:14:00.874Z,45.44
2019-03-29T16:19:06.906Z,46.26
2019-03-29T16:24:12.783Z,46.37
2019-03-29T16:29:19.658Z,44.29
2019-03-29T16:34:25.456Z,45.46
2019-03-29T16:39:31.250Z,45.77
2019-03-29T16:44:37.022Z,45.24
2019-03-29T16:49:42.929Z,46.24
2019-03-29T16:54:48.697Z,48.04
2019-03-29T16:59:57.083Z,48.83
2019-03-29T17:05:03.228Z,49.33
2019-03-29T17:10:09.405Z,48.90
2019-03-29T17:15:15.935Z,49.83
2019-03-29T17:20:22.027Z,49.71
2019-03-29T17:25:28.505Z,49.71
2019-03-29T17:30:40.822Z,51.39
2019-03-29T17:35:46.664Z,52.98
2019-03-29T17:40:52.440Z,55.60
2019-03-29T17:45:59.485Z,57.02
2019-03-29T17:51:05.626Z,58.02
2019-03-29T17:56:11.788Z,59.44
2019-03-29T18:01:18.277Z,60.73
2019-03-29T18:06:24.416Z,61.02
2019-03-29T18:11:30.196Z,61.71
2019-03-29T18:16:36.321Z,62.98
2019-03-29T18:21:42.092Z,63.42
2019-03-29T18:26:47.978Z,64.40
2019-03-29T18:31:54.353Z,63.97
2019-03-29T18:37:02.810Z,64.78
2019-03-29T18:42:08.629Z,67.00
2019-03-29T18:47:14.528Z,67.84
2019-03-29T18:52:21.452Z,68.01
2019-03-29T18:57:27.290Z,68.11
2019-03-29T19:02:33.074Z,68.95
2019-03-29T19:07:39.302Z,68.90
2019-03-29T19:12:45.231Z,69.17
2019-03-29T19:17:51.078Z,69.83
2019-03-29T19:22:57.456Z,71.11
2019-03-29T19:28:03.705Z,71.92
2019-03-29T19:33:10.907Z,72.62
2019-03-29T19:38:16.738Z,73.63
2019-03-29T19:43:22.541Z,74.32
2019-03-29T19:48:28.720Z,75.12
2019-03-29T19:53:35.611Z,75.65
2019-03-29T19:58:41.788Z,75.88
2019-03-29T20:03:48.063Z,76.06
2019-03-29T20:08:54.625Z,76.27
2019-03-29T20:14:00.760Z,76.30
2019-03-29T20:19:06.506Z,76.67
2019-03-29T20:24:12.307Z,76.63
2019-03-29T20:29:18.032Z,76.79
2019-03-29T20:34:24.059Z,76.80
2019-03-29T20:39:29.877Z,76.76
2019-03-29T20:44:35.708Z,76.94
2019-03-29T20:49:43.026Z,77.07
2019-03-29T20:54:48.741Z,77.01
2019-03-29T20:59:54.591Z,76.84
2019-03-29T21:05:00.907Z,76.71
2019-03-29T21:10:08.151Z,76.58
2019-03-29T21:15:14.399Z,76.06
2019-03-29T21:20:20.311Z,76.50
2019-03-29T21:25:26.832Z,77.50
2019-03-29T21:30:32.602Z,78.48
2019-03-29T21:35:38.370Z,78.87
2019-03-29T21:40:44.649Z,78.15
2019-03-29T21:45:50.600Z,77.89
2019-03-29T21:50:56.457Z,78.19
2019-03-29T21:56:03.486Z,79.11
2019-03-29T22:01:10.352Z,79.32
2019-03-29T22:06:17.535Z,79.54
2019-03-29T22:11:23.495Z,78.85
2019-03-29T22:16:29.719Z,78.94
2019-03-29T22:21:35.902Z,79.11
2019-03-29T22:26:41.610Z,78.91
2019-03-29T22:31:48.178Z,79.02
2019-03-29T22:36:54.155Z,79.61
2019-03-29T22:42:00.963Z,79.92
2019-03-29T22:47:06.850Z,80.20
2019-03-29T22:52:12.670Z,80.45
2019-03-29T22:57:18.562Z,81.08
2019-03-29T23:02:25.357Z,81.43
2019-03-29T23:07:31.048Z,81.28
2019-03-29T23:12:36.871Z,81.77
2019-03-29T23:17:42.810Z,82.02
2019-03-29T23:22:48.798Z,81.65
2019-03-29T23:27:55.936Z,81.35
2019-03-29T23:33:02.350Z,81.32
2019-03-29T23:38:08.055Z,81.28
2019-03-29T23:43:14.934Z,81.21
2019-03-29T23:48:20.625Z,80.92
2019-03-29T23:53:26.334Z,80.93
2019-03-29T23:58:32.399Z,80.89
